Wiarton Airport
CYVV : now visible

Airfield :











YOU CAN JOIN US ON...

 
LOGIN :

Register | Disclaimer

   EN    FR    IT 

 









Legend :    VFR   Marginal VFR   IFR   Intensive IFR   Very Intensive IFR
Visi :
Ceiling :
>= 8 km
>= 3000ft
5 to 8 km
1000 to 3000 ft
1500m to 5 km
500 to 1000 ft
800 to 1500m
200 to 500 ft
< 800m
< 200 ft
Symbols :   Thunderstorms  Fog  Heavy snow  Heavy precipitations  Wind > 20 kt







- Airport Elevation : 729 ft
- IATA code : YVV


CYVV - Wiarton

CURRENT METAR :
  • 202000Z 33004KT 300V070 15SM SCT150 BKN250 23/17 A3012 RMK AC3CI2 SLP203 DENSITY ALT 1600FT

EXPIRED METARs :
  • 201900Z 36004KT 340V050 15SM FEW025 SCT150 BKN200 22/16 A3014 RMK CU1AC4CI3 CU TR SLP208 DENSITY ALT 1500FT
  • 201800Z 01004KT 15SM SCT150 BKN200 21/17 A3015 RMK AC4CI3 SLP212 DENSITY ALT 1400FT

TAF TAF CYVV
Valid from the 20 at 20:00 until the 20 at 23:00 UTC


201938Z 2020/2023 VRB03KT P6SM FEW025 SCT150 BKN200 RMK NXT FCST WILL BE ISSUED AT 211045Z
No reported NOTAMs for that airfield.



MET'MAP, your aeronautical weather chart ! - Copyright ORBIFLY December 2007 - Disclaimer

ORBIFLY MET'MAP TEAM :

Programming & Development : Alexandra Zaïnal
Concept & Development : Baudouin d'Aumeries
Co-Development & Prog : Marc-Olivier Méhu
Technical & hardware support : Manuel Goepfert

Contact : metmap@orbifly.com




SOURCES & CREDITS :

   NOAA       Earth
Advisory